createdAt,value
2022-10-28T00:01:41.491Z,0.87
2022-10-28T00:04:28.208Z,0.87
2022-10-28T00:07:14.935Z,1.23
2022-10-28T00:10:01.676Z,1.00
2022-10-28T00:12:48.487Z,1.20
2022-10-28T00:15:35.333Z,1.10
2022-10-28T00:18:22.076Z,1.00
2022-10-28T00:21:08.760Z,0.70
2022-10-28T00:23:55.712Z,0.70
2022-10-28T00:26:45.754Z,0.80
2022-10-28T00:29:39.492Z,0.83
2022-10-28T00:32:26.204Z,0.90
2022-10-28T00:35:12.913Z,1.00
2022-10-28T00:37:59.609Z,0.67
2022-10-28T00:40:46.483Z,0.90
2022-10-28T00:43:33.295Z,1.07
2022-10-28T00:46:20.124Z,0.90
2022-10-28T00:49:10.990Z,0.90
2022-10-28T00:51:57.813Z,1.07
2022-10-28T00:54:44.972Z,0.93
2022-10-28T00:57:39.879Z,0.90
2022-10-28T01:00:27.622Z,1.20
2022-10-28T01:03:15.609Z,1.07
2022-10-28T01:06:04.410Z,0.77
2022-10-28T01:08:51.121Z,1.17
2022-10-28T01:12:00.471Z,1.33
2022-10-28T01:14:59.251Z,1.30
2022-10-28T01:17:58.067Z,1.33
2022-10-28T01:20:59.996Z,1.20
2022-10-28T01:24:14.221Z,1.10
2022-10-28T01:27:28.588Z,1.07
2022-10-28T01:30:41.466Z,0.80
2022-10-28T01:33:44.809Z,1.00
2022-10-28T01:36:39.036Z,1.07
2022-10-28T01:39:47.411Z,1.17
2022-10-28T01:42:49.132Z,1.10
2022-10-28T01:45:45.601Z,0.97
2022-10-28T01:48:39.640Z,0.80
2022-10-28T01:51:39.032Z,0.87
2022-10-28T01:54:28.795Z,0.60
2022-10-28T01:57:18.036Z,0.70
2022-10-28T02:00:07.221Z,0.80
2022-10-28T02:03:01.404Z,0.43
2022-10-28T02:06:06.407Z,0.60
2022-10-28T02:09:10.983Z,0.77
2022-10-28T02:12:09.547Z,1.00
2022-10-28T02:15:53.525Z,0.90
2022-10-28T02:18:51.045Z,0.87
2022-10-28T02:21:46.444Z,0.70
2022-10-28T02:24:41.281Z,0.90
2022-10-28T02:27:40.780Z,0.70
2022-10-28T02:30:35.323Z,0.97
2022-10-28T02:33:25.851Z,0.90
2022-10-28T02:36:40.412Z,1.17
2022-10-28T02:39:28.010Z,1.07
2022-10-28T02:42:19.248Z,1.00
2022-10-28T02:45:11.705Z,1.20
2022-10-28T02:48:03.779Z,1.30
2022-10-28T02:50:58.680Z,1.40
2022-10-28T02:53:51.529Z,0.93
2022-10-28T02:56:40.990Z,0.77
2022-10-28T02:59:33.224Z,1.10
2022-10-28T03:02:20.212Z,0.90
2022-10-28T03:05:07.028Z,0.97
2022-10-28T03:07:54.371Z,0.97
2022-10-28T03:10:41.512Z,1.20
2022-10-28T03:13:28.213Z,0.90
2022-10-28T03:16:14.893Z,1.03
2022-10-28T03:19:01.701Z,1.00
2022-10-28T03:21:48.452Z,0.80
2022-10-28T03:24:35.157Z,0.90
2022-10-28T03:27:21.886Z,1.00
2022-10-28T03:30:08.584Z,1.07
2022-10-28T03:32:55.663Z,0.90
2022-10-28T03:35:42.606Z,1.07
2022-10-28T03:38:29.288Z,1.23
2022-10-28T03:41:15.990Z,1.00
2022-10-28T03:44:02.912Z,1.40
2022-10-28T03:46:49.619Z,0.90
2022-10-28T03:49:36.384Z,1.00
2022-10-28T03:52:23.132Z,1.10
2022-10-28T03:55:09.836Z,1.23
2022-10-28T03:57:56.707Z,1.10
2022-10-28T04:00:43.523Z,0.97
2022-10-28T04:03:30.211Z,1.03
2022-10-28T04:06:16.934Z,1.27
2022-10-28T04:09:03.692Z,1.00
2022-10-28T04:11:50.396Z,1.00
2022-10-28T04:14:37.186Z,1.60
2022-10-28T04:17:23.913Z,1.20
2022-10-28T04:20:10.619Z,1.30
2022-10-28T04:22:57.509Z,1.33
2022-10-28T04:25:46.001Z,0.97
2022-10-28T04:28:32.691Z,1.20
2022-10-28T04:31:19.431Z,1.10
2022-10-28T04:34:06.185Z,1.00
2022-10-28T04:36:52.885Z,0.93
2022-10-28T04:39:39.589Z,0.90
2022-10-28T04:42:26.351Z,0.73
2022-10-28T04:45:13.062Z,1.10
2022-10-28T04:47:59.772Z,0.73
2022-10-28T04:50:47.480Z,1.00
2022-10-28T04:53:34.236Z,0.70
2022-10-28T04:56:20.968Z,0.80
2022-10-28T04:59:07.799Z,0.80
2022-10-28T05:01:54.598Z,0.80
2022-10-28T05:04:41.373Z,0.80
2022-10-28T05:07:28.076Z,0.70
2022-10-28T05:10:14.872Z,0.63
2022-10-28T05:13:02.472Z,0.70
2022-10-28T05:15:49.199Z,0.80
2022-10-28T05:18:36.091Z,0.60
2022-10-28T05:21:22.894Z,0.50
2022-10-28T05:24:09.724Z,0.40
2022-10-28T05:26:56.481Z,0.50
2022-10-28T05:29:43.161Z,0.50
2022-10-28T05:32:29.986Z,0.60
2022-10-28T05:35:16.674Z,0.40
2022-10-28T05:38:03.773Z,0.40
2022-10-28T05:40:50.553Z,0.50
2022-10-28T05:43:37.272Z,0.40
2022-10-28T05:46:23.991Z,0.40
2022-10-28T05:49:10.749Z,0.43
2022-10-28T05:51:57.456Z,0.83
2022-10-28T05:54:44.221Z,0.60
2022-10-28T05:57:30.919Z,0.60
2022-10-28T06:00:17.673Z,0.50
2022-10-28T06:03:04.537Z,0.40
2022-10-28T06:05:51.244Z,0.83
2022-10-28T06:08:37.957Z,0.80
2022-10-28T06:11:23.206Z,0.70
2022-10-28T06:14:09.948Z,0.70
2022-10-28T06:16:56.675Z,0.70
2022-10-28T06:19:43.385Z,0.60
2022-10-28T06:22:30.896Z,0.63
2022-10-28T06:25:17.593Z,0.97
2022-10-28T06:28:06.957Z,0.67
2022-10-28T06:30:56.952Z,0.67
2022-10-28T06:33:45.554Z,0.60
2022-10-28T06:36:32.255Z,0.80
2022-10-28T06:39:19.109Z,0.60
2022-10-28T06:42:05.817Z,0.60
2022-10-28T06:44:52.585Z,0.60
2022-10-28T06:47:41.887Z,1.00
2022-10-28T06:50:28.983Z,0.63
2022-10-28T06:53:16.978Z,0.87
2022-10-28T06:55:48.784Z,0.70
2022-10-28T06:58:15.700Z,0.80
2022-10-28T07:00:42.503Z,0.60
2022-10-28T07:03:09.834Z,0.90
2022-10-28T07:05:36.846Z,0.80
2022-10-28T07:08:03.853Z,0.90
2022-10-28T07:10:50.654Z,0.60
2022-10-28T07:13:37.358Z,0.70
2022-10-28T07:16:24.412Z,0.70
2022-10-28T07:19:11.215Z,0.60
2022-10-28T07:21:57.963Z,0.50
2022-10-28T07:24:44.685Z,0.60
2022-10-28T07:27:31.505Z,0.50
2022-10-28T07:30:18.292Z,0.60
2022-10-28T07:33:05.011Z,0.50
2022-10-28T07:35:51.804Z,0.57
2022-10-28T07:38:38.520Z,0.43
2022-10-28T07:41:27.322Z,0.60
2022-10-28T07:44:14.057Z,0.40
2022-10-28T07:47:01.226Z,0.60
2022-10-28T07:49:48.051Z,0.60
2022-10-28T07:52:34.835Z,0.70
2022-10-28T07:55:22.409Z,0.60
2022-10-28T07:58:09.478Z,0.50
2022-10-28T08:00:56.267Z,0.70
2022-10-28T08:03:43.323Z,0.80
2022-10-28T08:06:31.593Z,0.70
2022-10-28T08:09:18.327Z,0.80
2022-10-28T08:12:05.042Z,0.60
2022-10-28T08:14:51.789Z,0.60
2022-10-28T08:17:38.502Z,0.50
2022-10-28T08:20:25.927Z,0.50
2022-10-28T08:23:12.631Z,0.50
2022-10-28T08:26:06.881Z,0.60
2022-10-28T08:28:53.777Z,0.40
2022-10-28T08:31:40.487Z,0.43
2022-10-28T08:34:27.529Z,0.40
2022-10-28T08:37:14.264Z,0.50
2022-10-28T08:40:01.010Z,0.50
2022-10-28T08:42:52.737Z,0.33
2022-10-28T08:45:39.697Z,0.50
2022-10-28T08:48:34.650Z,0.50
2022-10-28T08:51:38.010Z,0.40
2022-10-28T08:54:31.539Z,0.53
2022-10-28T08:57:21.319Z,0.60
2022-10-28T09:00:11.878Z,0.60
2022-10-28T09:03:12.113Z,0.50
2022-10-28T09:06:04.796Z,0.73
2022-10-28T09:08:56.467Z,0.73
2022-10-28T09:12:09.499Z,0.70
2022-10-28T09:15:14.744Z,0.63
2022-10-28T09:18:15.510Z,0.60
2022-10-28T09:21:08.232Z,0.40
2022-10-28T09:24:05.537Z,0.40
2022-10-28T09:27:04.711Z,0.60
2022-10-28T09:30:01.911Z,0.60
2022-10-28T09:33:07.891Z,0.70
2022-10-28T09:36:01.243Z,0.50
2022-10-28T09:38:55.418Z,0.53
2022-10-28T09:41:47.366Z,0.57
2022-10-28T09:44:45.642Z,0.70
2022-10-28T09:47:47.417Z,0.60
2022-10-28T09:50:39.021Z,0.60
2022-10-28T09:53:40.585Z,0.60
2022-10-28T09:56:27.784Z,0.60
2022-10-28T09:59:18.008Z,0.50
2022-10-28T10:02:04.959Z,0.50
2022-10-28T10:04:51.774Z,0.40
2022-10-28T10:07:49.310Z,0.30
2022-10-28T10:11:04.209Z,0.60
2022-10-28T10:14:01.120Z,0.30
2022-10-28T10:16:58.461Z,0.30
2022-10-28T10:19:49.683Z,0.40
2022-10-28T10:22:57.996Z,0.30
2022-10-28T10:25:48.538Z,0.30
2022-10-28T10:28:36.442Z,0.20
2022-10-28T10:31:27.547Z,0.40
2022-10-28T10:34:16.745Z,0.40
2022-10-28T10:37:10.807Z,0.47
2022-10-28T10:39:58.001Z,0.40
2022-10-28T10:42:57.399Z,0.40
2022-10-28T10:45:51.428Z,0.30
2022-10-28T10:48:38.200Z,0.50
2022-10-28T10:51:46.779Z,0.40
2022-10-28T10:54:35.398Z,0.30
2022-10-28T10:57:35.174Z,0.50
2022-10-28T11:00:22.101Z,0.37
2022-10-28T11:03:10.355Z,0.30
2022-10-28T11:06:18.489Z,0.40
2022-10-28T11:09:06.600Z,0.70
2022-10-28T11:11:54.965Z,0.50
2022-10-28T11:14:47.667Z,0.50
2022-10-28T11:17:44.679Z,0.73
2022-10-28T11:20:46.787Z,1.10
2022-10-28T11:23:39.531Z,1.00
2022-10-28T11:26:30.811Z,0.90
2022-10-28T11:29:24.387Z,0.90
2022-10-28T11:32:29.729Z,0.90
2022-10-28T11:35:40.901Z,0.60
2022-10-28T11:38:27.596Z,0.53
2022-10-28T11:41:18.721Z,0.80
2022-10-28T11:44:17.418Z,0.87
2022-10-28T11:47:07.098Z,0.77
2022-10-28T11:50:31.855Z,0.70
2022-10-28T11:53:42.615Z,0.87
2022-10-28T11:56:44.710Z,0.70
2022-10-28T11:59:43.542Z,0.70
2022-10-28T12:02:55.193Z,0.60
2022-10-28T12:05:53.017Z,0.70
2022-10-28T12:08:55.022Z,0.60
2022-10-28T12:11:59.690Z,0.53
2022-10-28T12:14:46.348Z,0.50
2022-10-28T12:17:49.633Z,0.50
2022-10-28T12:21:05.406Z,0.47
2022-10-28T12:23:55.103Z,0.60
2022-10-28T12:26:55.914Z,0.50
2022-10-28T12:29:47.577Z,0.50
2022-10-28T12:32:42.271Z,0.50
2022-10-28T12:35:41.516Z,0.30
2022-10-28T12:39:13.077Z,0.40
2022-10-28T12:42:23.820Z,0.70
2022-10-28T12:45:13.991Z,0.33
2022-10-28T12:48:13.150Z,0.60
2022-10-28T12:51:09.495Z,0.70
2022-10-28T12:54:02.187Z,0.60
2022-10-28T12:56:57.256Z,0.57
2022-10-28T12:59:53.322Z,0.53
2022-10-28T13:02:49.944Z,0.43
2022-10-28T13:05:51.402Z,0.60
2022-10-28T13:09:12.066Z,0.63
2022-10-28T13:12:16.126Z,0.40
2022-10-28T13:15:35.442Z,0.50
2022-10-28T13:18:49.882Z,0.50
2022-10-28T13:21:52.036Z,0.60
2022-10-28T13:24:46.847Z,0.70
2022-10-28T13:30:34.387Z,0.70
2022-10-28T13:33:26.006Z,1.03
2022-10-28T13:36:15.432Z,0.80
2022-10-28T13:39:02.941Z,0.83
2022-10-28T13:41:52.437Z,0.70
2022-10-28T13:44:44.968Z,0.60
2022-10-28T13:47:52.999Z,0.60
2022-10-28T13:50:52.994Z,0.80
2022-10-28T13:53:48.624Z,0.43
2022-10-28T13:56:47.358Z,0.70
2022-10-28T13:59:58.518Z,0.30
2022-10-28T14:03:08.481Z,0.70
2022-10-28T14:05:58.170Z,0.70
2022-10-28T14:08:52.070Z,0.87
2022-10-28T14:11:46.518Z,0.60
2022-10-28T14:14:36.919Z,0.50
2022-10-28T14:17:24.290Z,0.60
2022-10-28T14:20:12.817Z,0.70
2022-10-28T14:22:59.546Z,0.50
2022-10-28T14:26:01.337Z,0.80
2022-10-28T14:28:47.991Z,0.70
2022-10-28T14:31:34.701Z,0.87
2022-10-28T14:34:21.447Z,0.80
2022-10-28T14:37:37.725Z,0.70
2022-10-28T14:40:44.351Z,0.80
2022-10-28T14:43:39.799Z,0.90
2022-10-28T14:46:29.564Z,0.73
2022-10-28T14:49:18.611Z,1.10
2022-10-28T14:52:05.778Z,0.80
2022-10-28T14:54:56.986Z,1.00
2022-10-28T14:57:52.552Z,0.60
2022-10-28T15:00:44.467Z,0.60
2022-10-28T15:03:32.176Z,0.70
2022-10-28T15:06:39.537Z,0.70
2022-10-28T15:09:35.554Z,0.80
2022-10-28T15:12:27.541Z,1.00
2022-10-28T15:15:16.511Z,0.70
2022-10-28T15:18:03.322Z,1.00
2022-10-28T15:20:55.443Z,0.70
2022-10-28T15:23:44.442Z,1.03
2022-10-28T15:26:37.014Z,1.40
2022-10-28T15:29:23.810Z,1.50
2022-10-28T15:32:44.939Z,1.87
2022-10-28T15:35:47.031Z,1.87
2022-10-28T15:38:54.750Z,1.97
2022-10-28T15:41:41.421Z,1.80
2022-10-28T15:44:43.516Z,1.70
2022-10-28T15:47:50.616Z,1.60
2022-10-28T15:50:37.341Z,1.57
2022-10-28T15:53:29.777Z,1.20
2022-10-28T15:56:43.840Z,1.00
2022-10-28T15:59:44.675Z,0.90
2022-10-28T16:03:00.371Z,0.90
2022-10-28T16:05:53.457Z,0.70
2022-10-28T16:08:49.810Z,0.90
2022-10-28T16:11:39.458Z,1.00
2022-10-28T16:15:00.474Z,0.90
2022-10-28T16:17:55.309Z,1.00
2022-10-28T16:20:49.839Z,3.13
2022-10-28T16:23:42.511Z,2.20
2022-10-28T16:26:32.468Z,3.53
2022-10-28T16:29:19.186Z,2.27
2022-10-28T16:32:09.758Z,1.90
2022-10-28T16:34:56.481Z,1.47
2022-10-28T16:37:50.749Z,1.90
2022-10-28T16:40:55.822Z,1.90
2022-10-28T16:43:45.171Z,1.70
2022-10-28T16:46:33.585Z,1.60
2022-10-28T16:49:20.398Z,1.33
2022-10-28T16:52:07.176Z,1.57
2022-10-28T16:54:53.881Z,1.57
2022-10-28T16:57:41.812Z,1.40
2022-10-28T17:00:32.780Z,1.33
2022-10-28T17:03:20.353Z,1.40
2022-10-28T17:06:07.236Z,1.60
2022-10-28T17:09:09.256Z,1.07
2022-10-28T17:11:55.984Z,1.20
2022-10-28T17:14:42.728Z,0.93
2022-10-28T17:17:30.103Z,1.50
2022-10-28T17:20:16.849Z,1.10
2022-10-28T17:23:03.586Z,1.20
2022-10-28T17:25:50.374Z,1.20
2022-10-28T17:28:37.191Z,1.10
2022-10-28T17:31:25.841Z,1.03
2022-10-28T17:34:14.222Z,1.20
2022-10-28T17:37:00.971Z,1.20
2022-10-28T17:39:47.814Z,1.30
2022-10-28T17:42:34.547Z,1.00
2022-10-28T17:45:22.175Z,1.37
2022-10-28T17:48:09.007Z,1.17
2022-10-28T17:50:55.724Z,0.97
2022-10-28T17:53:42.427Z,1.00
2022-10-28T17:56:29.844Z,0.90
2022-10-28T17:59:16.632Z,0.83
2022-10-28T18:02:03.444Z,0.90
2022-10-28T18:04:50.328Z,0.90
2022-10-28T18:07:37.042Z,1.30
2022-10-28T18:10:23.966Z,1.30
2022-10-28T18:13:10.742Z,1.20
2022-10-28T18:15:57.459Z,1.30
2022-10-28T18:18:47.184Z,1.40
2022-10-28T18:21:34.489Z,1.10
2022-10-28T18:24:24.963Z,1.27
2022-10-28T18:27:14.479Z,1.27
2022-10-28T18:30:01.247Z,0.90
2022-10-28T18:32:47.951Z,0.77
2022-10-28T18:35:34.737Z,0.90
2022-10-28T18:38:21.491Z,0.80
2022-10-28T18:41:08.207Z,1.00
2022-10-28T18:43:54.922Z,0.90
2022-10-28T18:46:42.050Z,0.93
2022-10-28T18:49:28.750Z,1.17
2022-10-28T18:52:15.544Z,0.83
2022-10-28T18:55:02.259Z,1.20
2022-10-28T18:57:49.007Z,1.57
2022-10-28T19:00:35.851Z,1.27
2022-10-28T19:03:22.551Z,1.20
2022-10-28T19:06:09.705Z,1.57
2022-10-28T19:08:57.396Z,1.40
2022-10-28T19:11:45.732Z,1.50
2022-10-28T19:14:32.456Z,1.63
2022-10-28T19:17:19.146Z,1.40
2022-10-28T19:20:05.869Z,1.90
2022-10-28T19:22:53.102Z,1.50
2022-10-28T19:25:40.170Z,1.70
2022-10-28T19:28:26.864Z,1.50
2022-10-28T19:31:24.665Z,1.50
2022-10-28T19:34:12.391Z,1.10
2022-10-28T19:36:59.107Z,1.20
2022-10-28T19:39:45.798Z,1.40
2022-10-28T19:42:32.534Z,1.30
2022-10-28T19:45:19.239Z,0.90
2022-10-28T19:48:05.955Z,1.10
2022-10-28T19:50:52.715Z,1.07
2022-10-28T19:53:39.426Z,0.97
2022-10-28T19:56:26.446Z,1.13
2022-10-28T19:59:18.443Z,1.00
2022-10-28T20:02:05.226Z,1.00
2022-10-28T20:04:52.019Z,1.20
2022-10-28T20:07:38.793Z,1.03
2022-10-28T20:10:25.887Z,0.90
2022-10-28T20:13:12.587Z,0.70
2022-10-28T20:15:59.296Z,0.80
2022-10-28T20:18:46.079Z,0.70
2022-10-28T20:21:38.176Z,0.90
2022-10-28T20:24:26.816Z,0.77
2022-10-28T20:27:13.526Z,0.80
2022-10-28T20:30:00.307Z,1.20
2022-10-28T20:32:48.813Z,0.83
2022-10-28T20:35:38.601Z,0.70
2022-10-28T20:38:25.380Z,0.97
2022-10-28T20:41:14.863Z,0.87
2022-10-28T20:44:01.908Z,0.80
2022-10-28T20:46:48.871Z,0.90
2022-10-28T20:49:35.722Z,0.83
2022-10-28T20:55:10.736Z,0.90
2022-10-28T20:57:57.593Z,0.70
2022-10-28T21:00:44.296Z,0.60
2022-10-28T21:03:31.006Z,0.83
2022-10-28T21:06:17.827Z,0.70
2022-10-28T21:09:04.906Z,1.10
2022-10-28T21:11:51.782Z,0.70
2022-10-28T21:14:38.540Z,1.00
2022-10-28T21:17:25.249Z,0.77
2022-10-28T21:20:11.944Z,0.70
2022-10-28T21:22:58.677Z,0.73
2022-10-28T21:25:25.543Z,0.60
2022-10-28T21:28:12.250Z,1.00
2022-10-28T21:30:58.987Z,1.00
2022-10-28T21:33:45.703Z,1.00
2022-10-28T21:36:34.969Z,0.87
2022-10-28T21:39:21.651Z,0.80
2022-10-28T21:42:08.383Z,0.63
2022-10-28T21:44:55.068Z,0.70
2022-10-28T21:47:41.810Z,0.70
2022-10-28T21:50:28.675Z,0.67
2022-10-28T21:53:15.382Z,0.70
2022-10-28T21:56:02.172Z,0.90
2022-10-28T21:58:31.406Z,0.67
2022-10-28T22:01:23.238Z,0.70
2022-10-28T22:04:11.879Z,0.53
2022-10-28T22:06:58.627Z,0.80
2022-10-28T22:09:45.313Z,0.60
2022-10-28T22:12:32.042Z,0.70
2022-10-28T22:15:18.740Z,0.60
2022-10-28T22:18:05.479Z,0.90
2022-10-28T22:20:52.382Z,0.80
2022-10-28T22:23:39.126Z,0.80
2022-10-28T22:26:28.694Z,0.87
2022-10-28T22:29:16.446Z,0.80
2022-10-28T22:32:03.182Z,0.60
2022-10-28T22:34:49.886Z,0.60
2022-10-28T22:37:36.703Z,0.73
2022-10-28T22:40:23.546Z,0.60
2022-10-28T22:43:10.324Z,0.70
2022-10-28T22:45:57.040Z,1.03
2022-10-28T22:48:43.844Z,0.60
2022-10-28T22:51:30.898Z,0.70
2022-10-28T22:54:17.774Z,0.80
2022-10-28T22:57:07.336Z,0.60
2022-10-28T22:59:54.101Z,0.70
2022-10-28T23:02:40.910Z,0.80
2022-10-28T23:05:28.114Z,0.93
2022-10-28T23:08:14.878Z,0.80
2022-10-28T23:11:01.899Z,0.80
2022-10-28T23:13:48.660Z,0.80
2022-10-28T23:16:36.266Z,0.87
2022-10-28T23:19:23.018Z,0.70
2022-10-28T23:22:09.731Z,0.70
2022-10-28T23:24:56.477Z,0.80
2022-10-28T23:27:43.248Z,0.70
2022-10-28T23:30:32.361Z,0.60
2022-10-28T23:33:19.103Z,0.73
2022-10-28T23:36:13.548Z,0.70
2022-10-28T23:39:01.228Z,0.67
2022-10-28T23:41:47.910Z,0.90
2022-10-28T23:44:35.450Z,0.73
2022-10-28T23:47:22.159Z,0.57
2022-10-28T23:50:08.916Z,0.77
2022-10-28T23:52:55.941Z,0.70
2022-10-28T23:55:42.775Z,0.70
2022-10-28T23:58:29.579Z,0.70
